createdAt,value
2023-07-04T00:01:36.344Z,43.36
2023-07-04T00:04:08.875Z,42.98
2023-07-04T00:06:38.026Z,42.82
2023-07-04T00:09:06.549Z,42.78
2023-07-04T00:11:35.071Z,42.93
2023-07-04T00:14:02.940Z,42.97
2023-07-04T00:16:30.788Z,42.85
2023-07-04T00:18:58.751Z,42.83
2023-07-04T00:21:27.422Z,42.96
2023-07-04T00:23:55.104Z,42.91
2023-07-04T00:26:25.070Z,42.76
2023-07-04T00:28:53.828Z,43.08
2023-07-04T00:31:25.721Z,42.97
2023-07-04T00:33:55.062Z,43.14
2023-07-04T00:36:23.534Z,43.10
2023-07-04T00:38:57.087Z,43.25
2023-07-04T00:41:28.329Z,43.05
2023-07-04T00:44:10.830Z,43.28
2023-07-04T00:47:08.561Z,43.20
2023-07-04T00:49:43.654Z,43.29
2023-07-04T00:52:17.359Z,43.29
2023-07-04T00:54:54.082Z,43.41
2023-07-04T00:57:26.738Z,43.83
2023-07-04T00:59:59.667Z,44.11
2023-07-04T01:02:32.970Z,44.26
2023-07-04T01:05:04.914Z,44.42
2023-07-04T01:08:20.395Z,44.60
2023-07-04T01:10:49.152Z,44.85
2023-07-04T01:13:35.335Z,45.09
2023-07-04T01:16:10.537Z,45.43
2023-07-04T01:18:39.747Z,45.46
2023-07-04T01:21:10.355Z,45.64
2023-07-04T01:23:59.687Z,45.62
2023-07-04T01:26:38.227Z,45.71
2023-07-04T01:29:11.801Z,45.48
2023-07-04T01:31:45.373Z,45.55
2023-07-04T01:34:14.644Z,45.39
2023-07-04T01:36:43.629Z,45.05
2023-07-04T01:39:16.640Z,45.08
2023-07-04T01:41:47.036Z,45.07
2023-07-04T01:44:20.316Z,45.12
2023-07-04T01:46:48.033Z,45.11
2023-07-04T01:49:16.638Z,45.04
2023-07-04T01:51:44.436Z,45.30
2023-07-04T01:54:18.396Z,45.14
2023-07-04T01:56:49.724Z,44.89
2023-07-04T01:59:17.416Z,44.76
2023-07-04T02:01:45.245Z,45.07
2023-07-04T02:04:13.099Z,44.95
2023-07-04T02:06:40.777Z,45.27
2023-07-04T02:09:08.924Z,45.27
2023-07-04T02:11:38.361Z,45.40
2023-07-04T02:14:07.447Z,45.15
2023-07-04T02:16:35.225Z,45.14
2023-07-04T02:19:03.193Z,45.05
2023-07-04T02:21:30.888Z,44.96
2023-07-04T02:24:00.789Z,45.02
2023-07-04T02:26:29.559Z,44.95
2023-07-04T02:28:57.574Z,44.96
2023-07-04T02:31:25.617Z,44.82
2023-07-04T02:33:54.574Z,44.91
2023-07-04T02:36:22.884Z,45.19
2023-07-04T02:38:52.006Z,44.93
2023-07-04T02:41:20.494Z,44.92
2023-07-04T02:43:53.068Z,44.80
2023-07-04T02:46:21.516Z,44.82
2023-07-04T02:48:53.038Z,44.59
2023-07-04T02:51:20.871Z,44.80
2023-07-04T02:53:49.037Z,44.80
2023-07-04T02:56:16.780Z,44.58
2023-07-04T02:58:44.996Z,44.58
2023-07-04T03:01:12.953Z,44.49
2023-07-04T03:03:42.434Z,44.68
2023-07-04T03:06:11.438Z,44.79
2023-07-04T03:08:41.805Z,44.46
2023-07-04T03:11:09.673Z,44.43
2023-07-04T03:13:37.436Z,44.17
2023-07-04T03:16:06.523Z,44.13
2023-07-04T03:18:35.352Z,43.83
2023-07-04T03:21:03.800Z,43.67
2023-07-04T03:23:31.537Z,43.48
2023-07-04T03:25:59.905Z,43.24
2023-07-04T03:28:27.752Z,43.12
2023-07-04T03:30:57.235Z,42.93
2023-07-04T03:33:26.765Z,42.74
2023-07-04T03:35:59.683Z,42.72
2023-07-04T03:38:29.840Z,42.36
2023-07-04T03:41:00.342Z,42.08
2023-07-04T03:43:29.002Z,41.92
2023-07-04T03:45:56.773Z,41.67
2023-07-04T03:48:24.892Z,41.64
2023-07-04T03:50:53.132Z,41.49
2023-07-04T03:53:21.275Z,41.38
2023-07-04T03:55:50.829Z,41.13
2023-07-04T03:58:19.000Z,40.96
2023-07-04T04:00:51.742Z,41.10
2023-07-04T04:03:20.130Z,40.91
2023-07-04T04:05:48.231Z,40.77
2023-07-04T04:08:16.046Z,40.74
2023-07-04T04:10:44.385Z,40.41
2023-07-04T04:13:12.154Z,40.27
2023-07-04T04:15:39.903Z,40.25
2023-07-04T04:18:07.526Z,40.21
2023-07-04T04:20:35.459Z,39.88
2023-07-04T04:23:03.265Z,39.67
2023-07-04T04:25:39.551Z,39.69
2023-07-04T04:28:08.878Z,39.56
2023-07-04T04:30:37.952Z,39.50
2023-07-04T04:33:05.908Z,39.22
2023-07-04T04:35:34.309Z,39.18
2023-07-04T04:38:02.120Z,38.92
2023-07-04T04:40:29.987Z,38.79
2023-07-04T04:42:57.945Z,38.91
2023-07-04T04:45:25.935Z,38.68
2023-07-04T04:47:56.501Z,38.67
2023-07-04T04:50:26.218Z,38.61
2023-07-04T04:52:54.059Z,38.45
2023-07-04T04:55:21.745Z,38.33
2023-07-04T04:57:49.456Z,38.07
2023-07-04T05:00:18.147Z,37.77
2023-07-04T05:02:46.480Z,37.75
2023-07-04T05:05:14.551Z,37.98
2023-07-04T05:07:42.523Z,37.67
2023-07-04T05:10:10.608Z,37.70
2023-07-04T05:12:40.063Z,37.79
2023-07-04T05:15:09.300Z,37.73
2023-07-04T05:17:37.101Z,37.63
2023-07-04T05:20:06.619Z,37.66
2023-07-04T05:22:34.719Z,37.66
2023-07-04T05:25:02.839Z,37.46
2023-07-04T05:27:31.894Z,37.42
2023-07-04T05:29:59.775Z,37.55
2023-07-04T05:32:27.417Z,37.65
2023-07-04T05:34:55.163Z,37.22
2023-07-04T05:37:23.042Z,37.34
2023-07-04T05:39:51.626Z,37.33
2023-07-04T05:42:19.419Z,37.10
2023-07-04T05:44:47.128Z,37.17
2023-07-04T05:47:14.968Z,37.01
2023-07-04T05:49:42.739Z,36.79
2023-07-04T05:52:10.527Z,36.84
2023-07-04T05:54:38.297Z,36.52
2023-07-04T05:57:37.173Z,36.39
2023-07-04T06:08:47.048Z,36.28
2023-07-04T06:16:08.716Z,36.07
2023-07-04T06:19:10.403Z,35.73
2023-07-04T06:21:44.337Z,36.03
2023-07-04T06:24:27.762Z,35.73
2023-07-04T06:27:06.500Z,36.21
2023-07-04T06:29:37.130Z,35.98
2023-07-04T06:32:09.098Z,35.75
2023-07-04T06:34:50.011Z,35.80
2023-07-04T06:37:19.626Z,35.68
2023-07-04T06:39:47.661Z,35.79
2023-07-04T06:42:16.044Z,35.77
2023-07-04T06:44:50.327Z,35.21
2023-07-04T06:47:18.520Z,35.10
2023-07-04T06:49:47.867Z,34.89
2023-07-04T06:54:44.121Z,34.56
2023-07-04T06:57:12.402Z,34.72
2023-07-04T06:59:40.530Z,34.68
2023-07-04T10:01:51.719Z,28.40
2023-07-04T10:04:44.733Z,28.57
2023-07-04T10:07:15.629Z,28.18
2023-07-04T10:09:56.859Z,28.13
2023-07-04T10:12:26.901Z,28.21
2023-07-04T10:14:57.929Z,28.08
2023-07-04T10:17:29.279Z,28.08
2023-07-04T10:20:10.920Z,27.95
2023-07-04T10:22:48.150Z,27.62
2023-07-04T10:25:23.785Z,27.83
2023-07-04T10:27:59.784Z,27.51
2023-07-04T10:30:40.161Z,27.87
2023-07-04T10:33:16.790Z,27.56
2023-07-04T10:35:49.879Z,27.36
2023-07-04T10:38:39.179Z,27.30
2023-07-04T10:41:20.065Z,27.18
2023-07-04T10:43:54.493Z,26.80
2023-07-04T10:46:26.705Z,26.69
2023-07-04T10:49:02.713Z,26.59
2023-07-04T10:51:36.275Z,26.25
2023-07-04T10:54:06.290Z,26.40
2023-07-04T10:56:37.791Z,26.16
2023-07-04T10:59:17.680Z,26.31
2023-07-04T11:04:41.076Z,26.30
2023-07-04T11:07:23.218Z,26.37
2023-07-04T11:10:01.926Z,26.22
2023-07-04T11:12:37.566Z,25.95
2023-07-04T11:15:10.458Z,25.86
2023-07-04T11:17:42.596Z,25.68
2023-07-04T11:20:39.748Z,25.44
2023-07-04T11:27:10.711Z,25.43
2023-07-04T11:29:52.513Z,25.18
2023-07-04T11:32:39.436Z,25.64
2023-07-04T11:35:17.218Z,25.46
2023-07-04T11:37:56.583Z,25.60
2023-07-04T11:40:30.866Z,25.29
2023-07-04T11:43:04.539Z,25.50
2023-07-04T11:45:34.098Z,25.52
2023-07-04T11:48:32.525Z,25.35
2023-07-04T11:51:19.901Z,25.05
2023-07-04T11:54:03.335Z,25.08
2023-07-04T11:59:20.176Z,24.22
2023-07-04T12:02:09.676Z,24.08
2023-07-04T12:04:38.317Z,24.07
2023-07-04T12:07:16.417Z,23.49
2023-07-04T12:10:02.194Z,23.45
2023-07-04T12:12:36.696Z,23.06
2023-07-04T12:15:12.184Z,23.26
2023-07-04T12:17:47.206Z,22.87
2023-07-04T12:20:18.272Z,22.89
2023-07-04T12:22:53.383Z,22.62
2023-07-04T12:25:29.236Z,22.72
2023-07-04T12:28:01.551Z,22.18
2023-07-04T12:33:01.607Z,21.97
2023-07-04T12:35:33.116Z,21.71
2023-07-04T12:38:04.689Z,21.78
2023-07-04T12:40:33.466Z,21.34
2023-07-04T12:45:35.802Z,19.91
2023-07-04T12:50:40.881Z,18.30
2023-07-04T12:53:12.506Z,18.61
2023-07-04T12:55:41.657Z,18.94
2023-07-04T12:58:13.998Z,18.76
2023-07-04T13:01:00.169Z,19.27
2023-07-04T13:03:28.139Z,17.35
2023-07-04T13:05:59.271Z,15.75
2023-07-04T13:08:29.813Z,14.86
2023-07-04T13:11:00.883Z,14.08
2023-07-04T13:13:43.846Z,13.08
2023-07-04T13:16:22.239Z,13.65
2023-07-04T13:18:51.086Z,14.95
2023-07-04T13:21:28.382Z,16.14
2023-07-04T13:26:47.508Z,16.84
2023-07-04T13:34:32.485Z,13.53
2023-07-04T13:37:03.695Z,13.09
2023-07-04T13:42:20.983Z,12.37
2023-07-04T13:47:20.715Z,11.41
2023-07-04T13:49:48.648Z,11.50
2023-07-04T13:52:16.991Z,11.26
2023-07-04T13:54:45.028Z,11.30
2023-07-04T13:57:13.204Z,11.06
2023-07-04T13:59:41.256Z,11.50
2023-07-04T14:10:34.333Z,9.83
2023-07-04T14:13:03.624Z,9.75
2023-07-04T14:20:35.275Z,10.91
2023-07-04T14:25:45.448Z,10.57
2023-07-04T14:28:14.176Z,12.19
2023-07-04T14:30:42.642Z,13.90
2023-07-04T14:33:10.857Z,15.53
2023-07-04T14:35:42.510Z,16.15
2023-07-04T14:38:11.620Z,16.91
2023-07-04T14:43:11.853Z,14.49
2023-07-04T14:45:39.692Z,13.24
2023-07-04T14:48:09.765Z,11.92
2023-07-04T14:50:37.899Z,11.06
2023-07-04T14:53:06.028Z,10.70
2023-07-04T14:55:44.701Z,10.48
2023-07-04T14:59:12.389Z,10.17
2023-07-04T15:01:40.160Z,10.24
2023-07-04T15:04:07.959Z,9.74
2023-07-04T15:06:35.555Z,9.79
2023-07-04T15:09:04.009Z,10.16
2023-07-04T15:11:31.684Z,9.71
2023-07-04T15:14:11.799Z,9.59
2023-07-04T15:16:49.827Z,9.23
2023-07-04T15:19:23.533Z,9.64
2023-07-04T15:21:51.204Z,9.58
2023-07-04T15:24:19.671Z,9.12
2023-07-04T15:26:47.713Z,9.27
2023-07-04T15:29:15.690Z,9.01
2023-07-04T15:31:43.621Z,9.34
2023-07-04T15:34:12.279Z,9.41
2023-07-04T15:36:40.001Z,9.34
2023-07-04T15:39:07.621Z,9.14
2023-07-04T15:41:35.296Z,9.32
2023-07-04T15:44:03.755Z,9.59
2023-07-04T15:46:31.474Z,9.48
2023-07-04T15:48:59.332Z,9.95
2023-07-04T15:51:27.227Z,9.91
2023-07-04T15:53:55.213Z,9.67
2023-07-04T15:56:23.768Z,9.60
2023-07-04T15:58:51.536Z,9.88
2023-07-04T16:01:20.939Z,10.55
2023-07-04T16:03:49.285Z,11.71
2023-07-04T16:06:18.514Z,12.05
2023-07-04T16:08:46.151Z,11.61
2023-07-04T16:11:15.144Z,11.30
2023-07-04T16:13:43.747Z,11.37
2023-07-04T16:16:12.441Z,11.46
2023-07-04T16:18:40.239Z,11.49
2023-07-04T16:21:08.062Z,11.25
2023-07-04T16:23:35.892Z,11.79
2023-07-04T16:26:04.506Z,12.04
2023-07-04T16:28:32.161Z,11.79
2023-07-04T16:31:08.258Z,11.78
2023-07-04T16:33:36.471Z,12.16
2023-07-04T16:36:05.577Z,12.51
2023-07-04T16:38:34.017Z,12.48
2023-07-04T16:41:02.649Z,13.04
2023-07-04T16:43:31.344Z,13.08
2023-07-04T16:45:59.049Z,13.36
2023-07-04T16:48:26.828Z,13.60
2023-07-04T16:50:59.006Z,13.98
2023-07-04T16:53:28.139Z,14.21
2023-07-04T16:55:58.203Z,14.32
2023-07-04T16:58:27.120Z,14.69
2023-07-04T17:00:55.428Z,15.09
2023-07-04T17:03:24.061Z,15.15
2023-07-04T17:05:54.047Z,15.90
2023-07-04T17:08:24.918Z,16.35
2023-07-04T17:10:53.782Z,17.22
2023-07-04T17:13:37.070Z,18.40
2023-07-04T17:16:11.199Z,19.76
2023-07-04T17:18:39.959Z,20.85
2023-07-04T17:21:09.341Z,21.81
2023-07-04T17:23:37.252Z,22.75
2023-07-04T17:26:05.409Z,23.04
2023-07-04T17:28:34.214Z,23.58
2023-07-04T17:31:05.094Z,24.17
2023-07-04T17:33:33.265Z,24.65
2023-07-04T17:36:18.968Z,24.78
2023-07-04T17:38:47.410Z,24.97
2023-07-04T17:41:16.706Z,25.51
2023-07-04T17:43:45.921Z,25.97
2023-07-04T17:46:14.465Z,26.23
2023-07-04T17:48:47.198Z,26.62
2023-07-04T17:51:17.681Z,27.11
2023-07-04T17:53:45.719Z,27.43
2023-07-04T17:56:16.298Z,27.95
2023-07-04T17:58:44.457Z,28.17
2023-07-04T18:01:16.302Z,28.41
2023-07-04T18:03:46.321Z,28.77
2023-07-04T18:06:16.948Z,28.76
2023-07-04T18:08:45.262Z,29.25
2023-07-04T18:11:19.778Z,29.44
2023-07-04T18:13:47.715Z,29.87
2023-07-04T18:16:16.656Z,30.12
2023-07-04T18:18:44.890Z,30.17
2023-07-04T18:21:18.539Z,30.62
2023-07-04T18:23:48.248Z,30.80
2023-07-04T18:26:20.810Z,30.83
2023-07-04T18:29:02.418Z,31.21
2023-07-04T18:32:35.872Z,31.23
2023-07-04T18:39:51.596Z,31.45
2023-07-04T18:42:51.813Z,31.80
2023-07-04T18:48:48.897Z,32.08
2023-07-04T18:51:23.068Z,32.54
2023-07-04T18:53:51.645Z,32.37
2023-07-04T18:56:23.243Z,33.18
2023-07-04T18:58:55.967Z,33.16
2023-07-04T19:01:29.445Z,33.33
2023-07-04T19:04:04.021Z,34.05
2023-07-04T19:07:09.452Z,33.78
2023-07-04T19:09:40.486Z,33.85
2023-07-04T19:12:10.859Z,34.12
2023-07-04T19:14:38.735Z,34.41
2023-07-04T19:17:07.277Z,34.75
2023-07-04T19:19:40.519Z,34.78
2023-07-04T19:22:11.093Z,34.95
2023-07-04T19:24:41.352Z,35.35
2023-07-04T19:27:13.154Z,35.22
2023-07-04T19:29:42.086Z,35.26
2023-07-04T19:32:10.644Z,35.39
2023-07-04T19:34:38.526Z,35.77
2023-07-04T19:37:10.507Z,36.03
2023-07-04T19:39:50.287Z,36.01
2023-07-04T19:42:18.146Z,35.71
2023-07-04T19:44:46.152Z,36.16
2023-07-04T19:47:15.790Z,36.21
2023-07-04T19:49:43.955Z,36.61
2023-07-04T19:52:14.103Z,36.90
2023-07-04T19:54:44.528Z,36.90
2023-07-04T19:57:22.303Z,37.08
2023-07-04T20:00:15.354Z,36.84
2023-07-04T20:03:07.617Z,36.85
2023-07-04T20:06:08.096Z,36.80
2023-07-04T20:08:55.085Z,37.27
2023-07-04T20:11:26.303Z,37.13
2023-07-04T20:13:54.327Z,37.46
2023-07-04T20:16:31.018Z,37.60
2023-07-04T20:19:00.065Z,37.43
2023-07-04T20:21:31.266Z,37.75
2023-07-04T20:23:59.198Z,37.91
2023-07-04T20:26:29.920Z,38.24
2023-07-04T20:28:59.217Z,38.23
2023-07-04T20:31:27.097Z,38.32
2023-07-04T20:33:54.957Z,38.47
2023-07-04T20:36:22.789Z,38.66
2023-07-04T20:38:50.990Z,38.78
2023-07-04T20:41:21.080Z,38.76
2023-07-04T20:43:48.854Z,39.03
2023-07-04T20:46:18.969Z,39.25
2023-07-04T20:48:46.991Z,39.20
2023-07-04T20:51:14.801Z,39.49
2023-07-04T20:53:44.409Z,39.83
2023-07-04T20:56:14.280Z,39.88
2023-07-04T20:59:01.118Z,39.83
2023-07-04T21:01:39.361Z,40.24
2023-07-04T21:04:35.815Z,39.97
2023-07-04T21:07:31.455Z,40.15
2023-07-04T21:10:28.442Z,40.15
2023-07-04T21:13:00.212Z,40.42
2023-07-04T21:15:29.342Z,40.54
2023-07-04T21:18:01.037Z,40.93
2023-07-04T21:20:29.004Z,40.98
2023-07-04T21:22:57.220Z,41.15
2023-07-04T21:25:49.322Z,41.41
2023-07-04T21:28:17.229Z,41.46
2023-07-04T21:30:45.084Z,41.76
2023-07-04T21:33:13.050Z,41.95
2023-07-04T21:35:41.930Z,42.35
2023-07-04T21:38:12.116Z,42.42
2023-07-04T21:40:40.037Z,42.26
2023-07-04T21:43:08.236Z,42.56
2023-07-04T21:45:37.149Z,42.38
2023-07-04T21:48:05.209Z,42.67
2023-07-04T21:50:33.072Z,42.96
2023-07-04T21:53:00.801Z,42.91
2023-07-04T21:55:28.702Z,43.38
2023-07-04T21:57:56.439Z,43.20
2023-07-04T22:00:24.198Z,43.32
2023-07-04T22:02:52.100Z,43.51
2023-07-04T22:05:19.898Z,43.72
2023-07-04T22:07:47.655Z,43.78
2023-07-04T22:10:15.705Z,43.99
2023-07-04T22:12:43.508Z,43.87
2023-07-04T22:15:11.839Z,44.02
2023-07-04T22:17:39.718Z,44.08
2023-07-04T22:20:07.988Z,44.06
2023-07-04T22:22:35.709Z,44.38
2023-07-04T22:25:03.454Z,44.44
2023-07-04T22:27:31.516Z,44.66
2023-07-04T22:29:59.375Z,44.81
2023-07-04T22:32:28.672Z,44.79
2023-07-04T22:34:56.468Z,44.92
2023-07-04T22:37:24.320Z,45.22
2023-07-04T22:39:52.097Z,45.24
2023-07-04T22:42:19.873Z,45.17
2023-07-04T22:44:47.624Z,45.41
2023-07-04T22:47:15.365Z,45.80
2023-07-04T22:49:43.100Z,46.02
2023-07-04T22:52:10.837Z,46.27
2023-07-04T22:54:38.559Z,46.65
2023-07-04T22:57:06.420Z,46.81
2023-07-04T22:59:34.214Z,47.28
2023-07-04T23:02:02.044Z,47.37
2023-07-04T23:04:29.902Z,47.52
2023-07-04T23:06:57.715Z,47.57
2023-07-04T23:09:25.405Z,47.89
2023-07-04T23:11:53.156Z,48.29
2023-07-04T23:14:21.082Z,48.20
2023-07-04T23:16:49.039Z,48.36
2023-07-04T23:19:16.890Z,48.51
2023-07-04T23:21:44.831Z,48.64
2023-07-04T23:24:12.626Z,48.93
2023-07-04T23:26:40.317Z,49.02
2023-07-04T23:29:08.252Z,49.22
2023-07-04T23:31:38.889Z,49.41
2023-07-04T23:34:07.058Z,49.46
2023-07-04T23:36:34.975Z,49.54
2023-07-04T23:39:02.863Z,49.63
2023-07-04T23:41:30.780Z,49.98
2023-07-04T23:43:58.896Z,49.97
2023-07-04T23:46:30.204Z,49.98
2023-07-04T23:49:07.245Z,50.13
2023-07-04T23:51:42.285Z,50.22
2023-07-04T23:54:35.874Z,50.43
2023-07-04T23:57:18.589Z,50.27
2023-07-04T23:59:49.666Z,50.36
